Time;durP1;ratioP1;P1;durP2;ratioP2;P2;SDS_P1;SDS_P2;PMS_P1;PMS_P2;Temp;Humidity;BMP_temperature;BMP_pressure;BME280_temperature;BME280_humidity;BME280_pressure;Samples;Min_cycle;Max_cycle;Signal;HPM_P1;HPM_P2
2020/12/25 00:02:12;;;;;;;0.70;0.70;;;3.00;99.60;;;;;;4956989;28;20177;-68
2020/12/25 00:04:38;;;;;;;0.30;0.30;;;3.00;99.90;;;;;;4957136;28;20689;-68
2020/12/25 00:07:04;;;;;;;0.30;0.30;;;3.10;99.70;;;;;;4957052;28;20190;-67
2020/12/25 00:09:30;;;;;;;0.50;0.50;;;3.10;99.20;;;;;;4956942;28;20185;-68
2020/12/25 00:11:55;;;;;;;0.30;0.30;;;3.10;99.10;;;;;;4956789;28;20180;-68
2020/12/25 00:14:21;;;;;;;0.30;0.30;;;3.10;99.30;;;;;;4956830;28;20187;-68
2020/12/25 00:16:47;;;;;;;0.50;0.50;;;3.10;99.50;;;;;;4956823;28;20205;-68
2020/12/25 00:19:12;;;;;;;0.40;0.40;;;3.00;99.70;;;;;;4956897;28;20183;-68
2020/12/25 00:21:38;;;;;;;0.40;0.40;;;3.20;99.90;;;;;;4956948;28;20174;-68
2020/12/25 00:24:04;;;;;;;0.40;0.40;;;3.20;99.60;;;;;;4956885;28;20190;-68
2020/12/25 00:26:31;;;;;;;0.40;0.40;;;3.20;99.20;;;;;;4956684;28;20206;-68
2020/12/25 00:29:00;;;;;;;0.40;0.40;;;3.10;99.00;;;;;;4956796;28;20180;-68
2020/12/25 00:31:34;;;;;;;0.40;0.40;;;3.20;99.00;;;;;;4956597;28;20574;-68
2020/12/25 00:34:03;;;;;;;0.30;0.30;;;3.30;99.40;;;;;;4956676;28;20181;-68
2020/12/25 00:36:37;;;;;;;0.30;0.30;;;3.40;98.90;;;;;;4956560;28;20272;-68
2020/12/25 00:39:07;;;;;;;0.40;0.40;;;3.40;98.80;;;;;;4956311;28;20219;-67
2020/12/25 00:41:33;;;;;;;0.40;0.40;;;3.30;99.20;;;;;;4956561;28;20172;-68
2020/12/25 00:43:59;;;;;;;0.40;0.40;;;3.30;99.30;;;;;;4956388;28;20192;-68
2020/12/25 00:46:24;;;;;;;0.40;0.40;;;3.30;99.40;;;;;;4956374;28;20725;-68
2020/12/25 00:48:50;;;;;;;0.60;0.50;;;3.20;99.60;;;;;;4956236;28;20180;-68
2020/12/25 00:51:20;;;;;;;0.30;0.30;;;3.30;99.60;;;;;;4956221;28;20542;-68
2020/12/25 00:53:47;;;;;;;0.40;0.40;;;3.20;99.90;;;;;;4956743;29;20812;-68
2020/12/25 00:56:13;;;;;;;0.35;0.35;;;3.00;99.90;;;;;;4956101;28;20210;-68
2020/12/25 00:58:40;;;;;;;1.25;0.50;;;2.90;99.80;;;;;;4956087;28;20183;-67
2020/12/25 01:01:07;;;;;;;0.47;0.47;;;2.90;99.90;;;;;;4956066;28;20230;-67
2020/12/25 01:03:34;;;;;;;0.40;0.40;;;2.90;99.90;;;;;;4956157;28;20261;-68
2020/12/25 01:06:00;;;;;;;0.35;0.35;;;3.10;99.90;;;;;;4956023;28;20208;-68
2020/12/25 01:08:25;;;;;;;0.30;0.30;;;3.20;99.90;;;;;;4955795;28;20677;-68
2020/12/25 01:10:51;;;;;;;0.40;0.40;;;3.10;99.80;;;;;;4956085;28;20174;-67
2020/12/25 01:13:17;;;;;;;0.40;0.40;;;3.00;99.90;;;;;;4955797;28;20631;-68
2020/12/25 01:15:43;;;;;;;0.30;0.30;;;2.80;99.90;;;;;;4955961;28;20175;-68
2020/12/25 01:18:09;;;;;;;0.37;0.37;;;2.80;99.90;;;;;;4955733;28;20495;-68
2020/12/25 01:20:35;;;;;;;0.40;0.40;;;2.80;99.90;;;;;;4955898;28;20180;-67
2020/12/25 01:23:02;;;;;;;0.50;0.50;;;3.10;99.90;;;;;;4955539;28;20203;-68
2020/12/25 01:25:28;;;;;;;0.40;0.40;;;3.20;99.90;;;;;;4955588;28;20235;-68
2020/12/25 01:27:54;;;;;;;0.40;0.40;;;3.30;99.90;;;;;;4955582;28;20681;-68
2020/12/25 01:30:19;;;;;;;0.40;0.40;;;3.40;99.90;;;;;;4955718;28;20525;-68
2020/12/25 01:32:45;;;;;;;1.57;0.47;;;3.50;99.90;;;;;;4955589;28;20173;-68
2020/12/25 01:35:11;;;;;;;0.50;0.47;;;3.60;99.70;;;;;;4955634;28;20686;-68
2020/12/25 01:37:36;;;;;;;0.43;0.40;;;3.60;99.30;;;;;;4955275;28;20199;-68
2020/12/25 01:40:03;;;;;;;0.40;0.40;;;3.60;99.30;;;;;;4955569;28;20181;-68
2020/12/25 01:42:29;;;;;;;0.40;0.40;;;3.60;99.40;;;;;;4955363;28;20174;-68
2020/12/25 01:44:54;;;;;;;0.50;0.50;;;3.50;99.50;;;;;;4955477;28;20177;-68
2020/12/25 01:47:20;;;;;;;0.50;0.47;;;3.40;99.70;;;;;;4955580;28;20658;-68
2020/12/25 01:49:48;;;;;;;0.40;0.40;;;3.60;99.90;;;;;;4954101;29;20232;-68
2020/12/25 01:52:14;;;;;;;0.40;0.40;;;3.70;99.70;;;;;;4955211;28;20199;-68
2020/12/25 01:54:43;;;;;;;0.30;0.30;;;3.70;99.60;;;;;;4955550;28;20170;-68
2020/12/25 01:57:10;;;;;;;0.30;0.30;;;3.70;99.60;;;;;;4955251;28;20689;-68
2020/12/25 01:59:36;;;;;;;0.65;0.65;;;3.80;99.50;;;;;;4955326;28;20501;-67
2020/12/25 02:02:02;;;;;;;0.50;0.50;;;3.90;99.40;;;;;;4955141;28;20180;-68
2020/12/25 02:04:28;;;;;;;1.30;0.70;;;4.00;99.30;;;;;;4955409;28;20168;-68
2020/12/25 02:06:53;;;;;;;0.40;0.40;;;4.00;99.30;;;;;;4955073;28;20220;-68
2020/12/25 02:09:19;;;;;;;0.93;0.40;;;4.00;99.30;;;;;;4955408;28;20184;-68
2020/12/25 02:11:45;;;;;;;0.40;0.40;;;4.00;99.10;;;;;;4955026;28;20410;-68
2020/12/25 02:14:11;;;;;;;0.40;0.40;;;4.00;98.90;;;;;;4955324;28;20256;-67
2020/12/25 02:16:36;;;;;;;0.33;0.33;;;4.00;98.80;;;;;;4955313;28;20268;-67
2020/12/25 02:19:02;;;;;;;0.50;0.40;;;4.00;98.90;;;;;;4955788;28;20412;-68
2020/12/25 02:21:28;;;;;;;0.40;0.40;;;3.90;98.90;;;;;;4958792;28;20170;-68
2020/12/25 02:23:53;;;;;;;0.40;0.40;;;4.00;99.10;;;;;;4958954;28;20258;-68
2020/12/25 02:26:19;;;;;;;0.40;0.40;;;4.00;99.10;;;;;;4959060;28;20236;-68
2020/12/25 02:28:45;;;;;;;0.40;0.40;;;4.00;99.00;;;;;;4958828;28;20174;-68
2020/12/25 02:31:10;;;;;;;0.40;0.40;;;4.00;99.10;;;;;;4958743;28;20165;-68
2020/12/25 02:33:36;;;;;;;0.53;0.40;;;4.00;98.90;;;;;;4958877;28;20526;-67
2020/12/25 02:36:01;;;;;;;0.40;0.40;;;3.90;98.90;;;;;;4958700;28;20177;-68
2020/12/25 02:38:27;;;;;;;0.40;0.40;;;3.90;98.80;;;;;;4958503;28;20212;-68
2020/12/25 02:40:53;;;;;;;0.40;0.40;;;3.90;98.80;;;;;;4958523;28;20181;-68
2020/12/25 02:43:18;;;;;;;0.40;0.40;;;3.90;98.90;;;;;;4958690;28;20173;-68
2020/12/25 02:45:44;;;;;;;0.40;0.40;;;3.90;99.00;;;;;;4958590;28;20757;-68
2020/12/25 02:48:09;;;;;;;0.30;0.30;;;3.90;98.90;;;;;;4958367;28;20201;-68
2020/12/25 02:50:35;;;;;;;0.50;0.50;;;4.10;99.00;;;;;;4958422;28;20177;-68
2020/12/25 02:53:01;;;;;;;0.40;0.40;;;4.00;98.80;;;;;;4958313;28;20651;-68
2020/12/25 02:55:26;;;;;;;0.50;0.50;;;4.00;98.80;;;;;;4958442;28;20174;-68
2020/12/25 02:57:52;;;;;;;0.40;0.40;;;4.00;98.90;;;;;;4958234;28;20209;-68
2020/12/25 03:00:18;;;;;;;0.40;0.40;;;4.00;98.70;;;;;;4958480;28;20173;-68
2020/12/25 03:02:43;;;;;;;0.40;0.40;;;3.90;98.70;;;;;;4957996;28;20268;-68
2020/12/25 03:05:09;;;;;;;0.70;0.60;;;3.90;98.80;;;;;;4958214;28;20208;-68
2020/12/25 03:07:35;;;;;;;0.40;0.40;;;3.90;98.80;;;;;;4958067;28;20659;-67
2020/12/25 03:10:00;;;;;;;0.40;0.40;;;3.80;98.70;;;;;;4958192;28;20172;-68
2020/12/25 03:12:26;;;;;;;0.40;0.40;;;3.90;98.90;;;;;;4958025;28;20177;-68
2020/12/25 03:14:51;;;;;;;0.37;0.37;;;3.80;98.70;;;;;;4958152;28;20177;-68
2020/12/25 03:17:17;;;;;;;0.60;0.40;;;3.60;98.90;;;;;;4958079;28;20280;-67
2020/12/25 03:19:43;;;;;;;4.23;1.00;;;3.50;99.10;;;;;;4957908;28;20176;-68
2020/12/25 03:22:08;;;;;;;0.40;0.40;;;3.50;99.20;;;;;;4957766;28;20179;-68
2020/12/25 03:24:34;;;;;;;0.40;0.40;;;3.60;99.30;;;;;;4958028;28;20185;-68
2020/12/25 03:27:00;;;;;;;0.40;0.40;;;3.70;99.20;;;;;;4957738;28;20215;-68
2020/12/25 03:29:25;;;;;;;0.40;0.40;;;3.60;99.20;;;;;;4957724;28;20200;-67
2020/12/25 03:31:51;;;;;;;0.40;0.40;;;3.60;99.50;;;;;;4956370;28;20176;-68
2020/12/25 03:34:17;;;;;;;0.40;0.40;;;3.60;99.50;;;;;;4957856;28;20188;-68
2020/12/25 03:36:43;;;;;;;0.30;0.30;;;3.70;99.50;;;;;;4957660;28;20198;-67
2020/12/25 03:39:09;;;;;;;0.40;0.40;;;3.80;99.40;;;;;;4957458;28;20211;-68
2020/12/25 03:41:34;;;;;;;0.40;0.40;;;3.80;99.10;;;;;;4957370;28;20535;-68
2020/12/25 03:44:00;;;;;;;0.50;0.50;;;3.90;99.00;;;;;;4957634;28;20538;-67
2020/12/25 03:46:31;;;;;;;0.40;0.40;;;3.90;99.00;;;;;;4957458;28;20195;-67
2020/12/25 03:48:56;;;;;;;0.40;0.40;;;4.00;98.80;;;;;;4957656;28;20256;-68
2020/12/25 03:51:22;;;;;;;0.40;0.40;;;3.90;98.70;;;;;;4957232;28;20205;-67
2020/12/25 03:53:47;;;;;;;0.50;0.40;;;4.00;98.90;;;;;;4957404;28;20642;-68
2020/12/25 03:56:15;;;;;;;0.40;0.40;;;3.70;98.70;;;;;;4957314;28;20168;-68
2020/12/25 03:58:41;;;;;;;0.73;0.50;;;3.70;99.20;;;;;;4957255;28;20176;-68
2020/12/25 04:01:06;;;;;;;0.50;0.50;;;3.70;99.00;;;;;;4957140;28;20188;-68
2020/12/25 04:03:32;;;;;;;0.37;0.37;;;3.70;99.10;;;;;;4957098;28;20197;-68
2020/12/25 04:05:58;;;;;;;0.40;0.40;;;3.70;99.00;;;;;;4957214;28;20557;-68
2020/12/25 04:08:23;;;;;;;0.50;0.50;;;3.60;99.20;;;;;;4956948;28;20565;-68
2020/12/25 04:10:49;;;;;;;0.50;0.50;;;3.50;98.90;;;;;;4957079;28;20190;-68
2020/12/25 04:13:14;;;;;;;0.73;0.73;;;3.40;98.80;;;;;;4956981;28;20188;-68
2020/12/25 04:15:40;;;;;;;0.70;0.70;;;3.40;98.40;;;;;;4957002;28;20702;-68
2020/12/25 04:18:06;;;;;;;0.90;0.90;;;3.20;98.30;;;;;;4956772;28;20197;-68
2020/12/25 04:20:31;;;;;;;0.73;0.73;;;3.10;98.50;;;;;;4957074;28;20230;-68
2020/12/25 04:22:57;;;;;;;0.50;0.50;;;3.10;98.50;;;;;;4955421;29;20637;-68
2020/12/25 04:25:22;;;;;;;0.83;0.83;;;3.10;98.40;;;;;;4956841;28;20237;-68
2020/12/25 04:27:48;;;;;;;1.20;0.80;;;3.10;98.30;;;;;;4956581;28;20196;-68
2020/12/25 04:30:14;;;;;;;0.83;0.70;;;3.20;98.10;;;;;;4956546;28;20180;-68
2020/12/25 04:32:39;;;;;;;0.50;0.50;;;3.20;98.10;;;;;;4956373;28;20228;-68
2020/12/25 04:35:05;;;;;;;0.50;0.50;;;3.30;97.90;;;;;;4955568;29;20274;-68
2020/12/25 04:37:31;;;;;;;0.90;0.53;;;3.30;97.50;;;;;;4956308;28;20223;-68
2020/12/25 04:39:57;;;;;;;0.50;0.50;;;3.30;97.60;;;;;;4956703;28;20424;-67
2020/12/25 04:42:26;;;;;;;0.60;0.60;;;3.20;97.80;;;;;;4955872;28;20551;-68
2020/12/25 04:44:51;;;;;;;0.80;0.80;;;3.10;98.10;;;;;;4956442;28;20203;-67
2020/12/25 04:47:18;;;;;;;0.67;0.53;;;3.10;98.40;;;;;;4956547;28;20198;-68
2020/12/25 04:49:44;;;;;;;1.20;0.80;;;3.20;98.10;;;;;;4956285;28;20171;-67
2020/12/25 04:52:10;;;;;;;0.40;0.40;;;3.10;98.20;;;;;;4956458;28;20668;-68
2020/12/25 04:54:35;;;;;;;0.80;0.80;;;3.00;98.30;;;;;;4956349;28;20184;-67
2020/12/25 04:57:01;;;;;;;0.80;0.80;;;2.90;98.60;;;;;;4956241;28;20757;-67
2020/12/25 04:59:30;;;;;;;0.80;0.80;;;2.80;98.10;;;;;;4956079;28;20175;-68
2020/12/25 05:01:59;;;;;;;1.00;1.00;;;2.70;98.30;;;;;;4956087;28;20180;-68
2020/12/25 05:04:25;;;;;;;0.77;0.70;;;2.90;98.50;;;;;;4954957;29;20737;-68
2020/12/25 05:06:52;;;;;;;2.93;1.37;;;3.10;98.40;;;;;;4955926;28;20215;-67
2020/12/25 05:09:21;;;;;;;0.80;0.80;;;3.10;98.30;;;;;;4955915;28;20224;-68
2020/12/25 05:11:54;;;;;;;0.70;0.70;;;3.10;98.10;;;;;;4954521;29;20551;-68
2020/12/25 05:14:27;;;;;;;0.85;0.85;;;2.90;97.10;;;;;;4955900;28;20177;-68
2020/12/25 05:16:56;;;;;;;1.60;0.80;;;2.70;97.10;;;;;;4955918;28;20228;-67
2020/12/25 05:19:32;;;;;;;2.55;1.20;;;2.40;96.80;;;;;;4955756;28;20527;-68
2020/12/25 05:22:00;;;;;;;0.90;0.90;;;2.10;97.50;;;;;;4955729;28;20180;-68
2020/12/25 05:24:26;;;;;;;1.13;1.02;;;2.20;97.70;;;;;;4955864;28;20265;-67
2020/12/25 05:26:53;;;;;;;1.10;1.00;;;2.30;97.70;;;;;;4955527;28;20610;-67
2020/12/25 05:29:22;;;;;;;0.95;0.90;;;2.40;97.80;;;;;;4955682;28;20203;-68
2020/12/25 05:31:48;;;;;;;0.90;0.90;;;2.40;97.70;;;;;;4955429;28;20203;-68
2020/12/25 05:34:16;;;;;;;0.93;0.93;;;2.30;97.60;;;;;;4955732;28;20173;-67
2020/12/25 05:36:51;;;;;;;2.05;1.00;;;2.30;96.90;;;;;;4955655;28;20200;-67
2020/12/25 05:39:38;;;;;;;2.03;1.05;;;2.30;96.60;;;;;;4955463;28;20198;-68
2020/12/25 05:42:06;;;;;;;1.90;0.90;;;2.10;96.80;;;;;;4955533;28;20203;-67
2020/12/25 05:44:47;;;;;;;1.50;1.40;;;2.00;97.60;;;;;;4955577;28;20192;-68
2020/12/25 05:47:17;;;;;;;0.70;0.70;;;1.90;97.70;;;;;;4955367;28;20285;-68
2020/12/25 05:49:44;;;;;;;1.92;1.38;;;2.00;97.50;;;;;;4955830;28;20189;-68
2020/12/25 05:52:12;;;;;;;2.92;1.52;;;1.90;97.40;;;;;;4955239;28;20244;-67
2020/12/25 05:54:41;;;;;;;7.55;1.60;;;2.00;97.30;;;;;;4959519;28;20175;-67
2020/12/25 05:57:08;;;;;;;1.58;1.05;;;1.90;97.00;;;;;;4961695;28;20248;-67
2020/12/25 05:59:34;;;;;;;1.15;1.05;;;1.80;97.20;;;;;;4961743;28;20194;-68
2020/12/25 06:02:02;;;;;;;4.13;1.63;;;1.90;97.30;;;;;;4961541;28;20661;-68
2020/12/25 06:04:31;;;;;;;1.10;1.10;;;1.80;97.30;;;;;;4962117;28;20723;-68
2020/12/25 06:06:57;;;;;;;1.30;1.23;;;1.90;97.60;;;;;;4961584;28;20225;-68
2020/12/25 06:09:33;;;;;;;2.72;1.52;;;1.80;97.20;;;;;;4961619;28;20652;-68
2020/12/25 06:12:00;;;;;;;3.17;1.23;;;1.70;97.30;;;;;;4961456;28;20593;-67
2020/12/25 06:14:26;;;;;;;0.88;0.85;;;1.50;97.50;;;;;;4961704;28;20648;-67
2020/12/25 06:17:14;;;;;;;2.20;1.20;;;1.60;98.00;;;;;;4961487;28;20198;-67
2020/12/25 06:19:50;;;;;;;1.58;0.70;;;1.60;97.60;;;;;;4960411;28;20950;-67
2020/12/25 06:22:27;;;;;;;2.15;1.20;;;1.70;97.50;;;;;;4961479;28;20181;-68
2020/12/25 06:24:55;;;;;;;2.83;2.50;;;1.80;97.40;;;;;;4961640;28;20636;-68
2020/12/25 06:27:25;;;;;;;1.23;1.13;;;1.80;97.40;;;;;;4961425;28;20209;-68
2020/12/25 06:29:53;;;;;;;0.70;0.70;;;1.70;97.30;;;;;;4961512;28;20165;-68
2020/12/25 06:32:21;;;;;;;1.30;1.10;;;1.60;97.60;;;;;;4961477;28;20177;-67
2020/12/25 06:34:49;;;;;;;2.35;1.00;;;1.60;97.90;;;;;;4961645;28;20182;-68
2020/12/25 06:37:15;;;;;;;1.38;1.30;;;1.60;98.00;;;;;;4961520;28;20268;-68
2020/12/25 06:39:53;;;;;;;0.80;0.80;;;1.70;98.10;;;;;;4961279;28;20197;-68
2020/12/25 06:42:35;;;;;;;2.90;2.70;;;1.70;97.90;;;;;;4961389;28;20179;-67
2020/12/25 06:45:02;;;;;;;0.70;0.70;;;1.70;98.00;;;;;;4961402;28;20220;-67
2020/12/25 06:47:34;;;;;;;0.90;0.90;;;1.70;97.90;;;;;;4961220;28;20187;-68
2020/12/25 06:50:10;;;;;;;0.80;0.80;;;1.70;98.30;;;;;;4961266;28;20625;-68
2020/12/25 06:52:50;;;;;;;1.15;0.77;;;1.70;98.30;;;;;;4961276;28;20185;-68
2020/12/25 06:55:16;;;;;;;2.25;1.50;;;1.70;98.40;;;;;;4961619;28;20202;-68
2020/12/25 06:57:45;;;;;;;2.23;1.00;;;1.80;98.20;;;;;;4961313;28;20233;-68
2020/12/25 07:00:11;;;;;;;1.10;1.10;;;1.90;98.10;;;;;;4961168;28;20168;-68
2020/12/25 07:02:41;;;;;;;0.80;0.80;;;2.00;97.80;;;;;;4961005;28;20535;-68
2020/12/25 07:05:07;;;;;;;1.15;1.00;;;1.90;97.60;;;;;;4960006;28;20746;-67
2020/12/25 07:07:33;;;;;;;2.30;1.10;;;1.90;98.10;;;;;;4958063;28;20201;-68
2020/12/25 07:10:07;;;;;;;0.83;0.80;;;2.10;98.00;;;;;;4958325;28;20170;-68
2020/12/25 07:12:33;;;;;;;2.30;1.25;;;1.90;98.00;;;;;;4957896;28;20538;-67
2020/12/25 07:14:59;;;;;;;1.30;1.20;;;1.90;98.00;;;;;;4958244;28;20185;-67
2020/12/25 07:17:25;;;;;;;1.70;1.33;;;1.90;98.20;;;;;;4957914;28;20217;-68
2020/12/25 07:19:51;;;;;;;1.33;1.23;;;1.90;98.10;;;;;;4957987;28;20175;-68
2020/12/25 07:22:19;;;;;;;1.00;0.90;;;2.00;98.10;;;;;;4957915;28;20637;-68
2020/12/25 07:24:44;;;;;;;2.17;0.68;;;2.00;98.20;;;;;;4957984;28;20908;-68
2020/12/25 07:27:12;;;;;;;2.43;0.87;;;2.10;97.90;;;;;;4957827;28;20213;-68
2020/12/25 07:29:38;;;;;;;1.30;1.20;;;2.10;97.60;;;;;;4957773;28;20811;-67
2020/12/25 07:32:05;;;;;;;1.95;1.85;;;2.00;97.20;;;;;;4957544;28;20535;-68
2020/12/25 07:34:32;;;;;;;1.13;1.13;;;1.90;97.10;;;;;;4957616;28;20175;-68
2020/12/25 07:36:58;;;;;;;1.23;1.05;;;1.70;97.50;;;;;;4957683;28;20215;-67
2020/12/25 07:39:25;;;;;;;1.35;1.25;;;1.70;97.90;;;;;;4957545;28;20263;-67
2020/12/25 07:41:51;;;;;;;0.60;0.60;;;1.80;97.80;;;;;;4957397;28;20173;-68
2020/12/25 07:44:18;;;;;;;1.33;0.80;;;1.90;97.50;;;;;;4957521;28;20195;-68
2020/12/25 07:46:44;;;;;;;1.45;1.40;;;1.70;97.50;;;;;;4957525;28;20338;-68
2020/12/25 07:49:09;;;;;;;0.90;0.90;;;1.70;98.10;;;;;;4957541;28;20205;-68
2020/12/25 07:51:35;;;;;;;5.70;1.57;;;1.80;98.00;;;;;;4957243;28;20753;-68
2020/12/25 07:54:02;;;;;;;0.70;0.70;;;2.00;97.90;;;;;;4956226;28;20413;-67
2020/12/25 07:56:30;;;;;;;2.95;2.20;;;2.10;97.50;;;;;;4957393;28;20523;-68
2020/12/25 07:58:56;;;;;;;1.75;1.65;;;2.20;97.30;;;;;;4957489;28;20186;-67
2020/12/25 08:01:23;;;;;;;1.00;1.00;;;2.40;97.10;;;;;;4957060;28;20641;-68
2020/12/25 08:03:49;;;;;;;1.00;0.90;;;2.40;97.20;;;;;;4957193;28;20419;-68
2020/12/25 08:06:18;;;;;;;1.35;0.80;;;2.50;97.50;;;;;;4957057;28;20280;-67
2020/12/25 08:08:45;;;;;;;0.70;0.70;;;2.70;97.30;;;;;;4957076;28;20583;-68
2020/12/25 08:11:14;;;;;;;5.43;1.48;;;2.60;97.30;;;;;;4956971;28;20175;-68
2020/12/25 08:13:40;;;;;;;1.35;1.20;;;2.70;97.70;;;;;;4956942;28;20704;-68
2020/12/25 08:16:06;;;;;;;0.98;0.68;;;3.10;97.50;;;;;;4956867;28;20579;-68
2020/12/25 08:18:32;;;;;;;1.58;1.10;;;3.50;96.90;;;;;;4956283;28;20541;-68
2020/12/25 08:21:00;;;;;;;1.00;0.97;;;3.70;96.20;;;;;;4956831;28;20179;-68
2020/12/25 08:23:26;;;;;;;1.50;1.40;;;3.70;96.10;;;;;;4956936;28;20176;-68
2020/12/25 08:25:53;;;;;;;1.30;1.20;;;3.60;96.10;;;;;;4957063;28;20272;-67
2020/12/25 08:28:21;;;;;;;1.08;0.98;;;3.60;96.10;;;;;;4956602;28;20669;-68
2020/12/25 08:30:47;;;;;;;3.53;1.95;;;3.70;96.30;;;;;;4956847;28;20179;-67
2020/12/25 08:33:24;;;;;;;0.80;0.80;;;3.80;96.20;;;;;;4956541;28;20181;-68
2020/12/25 08:35:49;;;;;;;1.45;1.10;;;3.90;95.90;;;;;;4956573;28;20180;-67
2020/12/25 08:38:18;;;;;;;4.20;1.40;;;4.10;95.70;;;;;;4956303;28;20675;-68
2020/12/25 08:40:45;;;;;;;0.98;0.98;;;4.20;95.50;;;;;;4956869;28;20177;-68
2020/12/25 08:43:12;;;;;;;1.40;1.30;;;4.30;95.20;;;;;;4956289;28;20580;-68
2020/12/25 08:46:03;;;;;;;1.30;0.88;;;4.30;95.10;;;;;;4956324;28;20240;-68
2020/12/25 08:48:33;;;;;;;2.28;2.13;;;4.50;95.00;;;;;;4956817;28;20196;-68
2020/12/25 08:51:09;;;;;;;1.92;0.90;;;4.70;94.70;;;;;;4956281;29;20229;-67
2020/12/25 08:53:35;;;;;;;2.85;1.45;;;4.90;94.20;;;;;;4956290;28;20257;-68
2020/12/25 08:56:27;;;;;;;1.95;0.57;;;4.80;94.10;;;;;;4956234;28;20188;-68
2020/12/25 08:59:04;;;;;;;1.63;1.52;;;4.40;94.40;;;;;;4954907;29;20193;-68
2020/12/25 09:01:32;;;;;;;0.85;0.85;;;4.30;95.10;;;;;;4956173;28;20589;-68
2020/12/25 09:03:58;;;;;;;1.45;1.35;;;4.40;94.80;;;;;;4956094;28;20178;-68
2020/12/25 09:06:25;;;;;;;3.95;2.40;;;4.50;94.60;;;;;;4955946;28;20212;-68
2020/12/25 09:08:50;;;;;;;8.23;5.97;;;4.50;94.00;;;;;;4955948;28;20174;-68
2020/12/25 09:11:18;;;;;;;2.40;1.17;;;4.50;94.50;;;;;;4955905;28;20178;-68
2020/12/25 09:13:45;;;;;;;4.00;2.05;;;4.20;93.70;;;;;;4955865;28;20168;-68
2020/12/25 09:16:11;;;;;;;1.73;1.63;;;4.40;94.40;;;;;;4955863;28;20178;-67
2020/12/25 09:18:38;;;;;;;1.97;1.60;;;4.60;94.40;;;;;;4955937;28;20624;-68
2020/12/25 09:21:07;;;;;;;2.92;1.55;;;4.50;93.60;;;;;;4954444;28;20943;-68
2020/12/25 09:23:33;;;;;;;2.70;1.35;;;4.30;93.90;;;;;;4956003;28;20174;-68
2020/12/25 09:25:58;;;;;;;1.33;1.23;;;4.40;94.70;;;;;;4955762;28;20682;-68
2020/12/25 09:28:25;;;;;;;1.27;1.17;;;4.60;94.50;;;;;;4955623;28;20193;-68
2020/12/25 09:30:54;;;;;;;1.88;1.23;;;4.80;93.90;;;;;;4955648;28;20193;-67
2020/12/25 09:33:21;;;;;;;1.63;1.52;;;4.80;93.80;;;;;;4955805;28;20181;-68
2020/12/25 09:35:47;;;;;;;1.42;1.33;;;4.40;93.40;;;;;;4954263;29;20739;-68
2020/12/25 09:38:13;;;;;;;0.77;0.70;;;4.30;93.80;;;;;;4955331;28;20596;-68
2020/12/25 09:40:38;;;;;;;2.13;1.50;;;4.30;94.30;;;;;;4955444;28;20185;-68
2020/12/25 09:43:04;;;;;;;1.27;1.10;;;4.10;94.50;;;;;;4955354;28;20184;-68
2020/12/25 09:45:30;;;;;;;2.00;1.37;;;4.20;94.80;;;;;;4955555;28;20201;-68
2020/12/25 09:47:55;;;;;;;1.43;1.33;;;4.30;94.10;;;;;;4955490;28;20192;-68
2020/12/25 09:50:21;;;;;;;0.63;0.63;;;4.30;94.60;;;;;;4955474;28;20197;-68
2020/12/25 09:52:47;;;;;;;1.23;1.00;;;4.50;95.40;;;;;;4955168;28;20589;-68
2020/12/25 09:55:13;;;;;;;0.90;0.90;;;4.70;94.70;;;;;;4954267;28;20172;-68
2020/12/25 09:57:39;;;;;;;0.97;0.97;;;4.70;94.40;;;;;;4955269;28;20436;-67
2020/12/25 10:00:11;;;;;;;1.00;0.70;;;4.40;93.60;;;;;;4955352;28;20746;-68
2020/12/25 10:02:37;;;;;;;0.88;0.88;;;4.40;94.00;;;;;;4955308;28;20405;-68
2020/12/25 10:05:04;;;;;;;1.40;0.90;;;4.50;94.20;;;;;;4954122;28;20695;-67
2020/12/25 10:07:30;;;;;;;0.80;0.80;;;4.60;93.40;;;;;;4954100;28;20193;-68
2020/12/25 10:09:55;;;;;;;1.20;1.10;;;4.60;93.70;;;;;;4955708;28;20235;-68
2020/12/25 10:12:21;;;;;;;1.83;1.17;;;4.90;93.40;;;;;;4955064;28;20401;-68
2020/12/25 10:14:47;;;;;;;0.83;0.83;;;4.90;93.20;;;;;;4955255;28;20165;-68
2020/12/25 10:17:12;;;;;;;1.10;1.00;;;4.70;92.90;;;;;;4953661;28;20488;-68
2020/12/25 10:19:38;;;;;;;1.07;0.97;;;4.70;93.40;;;;;;4954787;28;20622;-67
2020/12/25 10:22:04;;;;;;;1.10;1.00;;;4.80;93.10;;;;;;4954927;28;20202;-67
2020/12/25 10:24:29;;;;;;;0.97;0.97;;;4.70;93.20;;;;;;4954985;29;20256;-68
2020/12/25 10:26:55;;;;;;;3.93;2.23;;;4.90;93.70;;;;;;4954952;28;20204;-68
2020/12/25 10:29:21;;;;;;;7.60;6.17;;;5.20;93.30;;;;;;4955147;28;20173;-68
2020/12/25 10:31:48;;;;;;;1.50;1.40;;;5.40;92.80;;;;;;4954903;28;20248;-68
2020/12/25 10:34:14;;;;;;;3.00;2.60;;;5.50;92.40;;;;;;4955099;28;20249;-68
2020/12/25 10:36:40;;;;;;;3.00;1.30;;;5.60;93.20;;;;;;4955053;28;20194;-68
2020/12/25 10:39:06;;;;;;;1.27;1.20;;;5.80;91.70;;;;;;4954875;28;20189;-67
2020/12/25 10:41:32;;;;;;;2.00;1.07;;;5.90;91.70;;;;;;4957739;28;20284;-68
2020/12/25 10:43:58;;;;;;;2.45;2.00;;;6.00;91.30;;;;;;4958613;28;20174;-68
2020/12/25 10:46:25;;;;;;;3.03;1.45;;;5.80;91.50;;;;;;4958603;28;20213;-68
2020/12/25 10:48:50;;;;;;;1.25;1.23;;;6.00;91.80;;;;;;4958556;28;20248;-68
2020/12/25 10:51:16;;;;;;;1.33;1.23;;;6.00;91.50;;;;;;4958422;28;20260;-68
2020/12/25 10:53:42;;;;;;;1.17;1.07;;;6.10;90.60;;;;;;4959109;28;20271;-68
2020/12/25 10:56:08;;;;;;;3.07;0.97;;;6.10;90.50;;;;;;4958595;28;20636;-68
2020/12/25 10:58:34;;;;;;;1.08;0.98;;;6.00;90.80;;;;;;4958565;28;20194;-68
2020/12/25 11:01:00;;;;;;;2.00;0.77;;;5.90;90.50;;;;;;4958220;28;20264;-68
2020/12/25 11:03:25;;;;;;;1.13;1.00;;;5.90;90.70;;;;;;4958444;28;20416;-68
2020/12/25 11:05:51;;;;;;;1.13;1.13;;;5.70;91.30;;;;;;4958293;28;20201;-68
2020/12/25 11:08:16;;;;;;;1.20;1.10;;;5.50;91.10;;;;;;4958335;28;20268;-67
2020/12/25 11:10:45;;;;;;;1.97;1.40;;;5.50;91.40;;;;;;4958096;28;20177;-68
2020/12/25 11:13:11;;;;;;;1.63;1.52;;;5.90;91.70;;;;;;4957976;28;20201;-67
2020/12/25 11:15:41;;;;;;;2.17;1.97;;;6.00;91.20;;;;;;4958347;28;20648;-68
2020/12/25 11:18:07;;;;;;;2.03;1.92;;;6.00;90.90;;;;;;4957950;28;20280;-68
2020/12/25 11:20:33;;;;;;;1.30;1.20;;;6.20;90.90;;;;;;4958070;28;20185;-68
2020/12/25 11:22:58;;;;;;;2.67;1.43;;;6.10;90.50;;;;;;4957735;28;20174;-68
2020/12/25 11:25:24;;;;;;;1.33;1.10;;;5.90;91.00;;;;;;4957805;28;20544;-68
2020/12/25 11:27:49;;;;;;;1.13;1.03;;;5.90;90.70;;;;;;4957726;28;20193;-68
2020/12/25 11:30:15;;;;;;;1.10;1.10;;;6.00;90.80;;;;;;4956670;29;20174;-68
2020/12/25 11:32:40;;;;;;;1.00;1.00;;;6.00;90.70;;;;;;4957809;28;20169;-68
2020/12/25 11:35:06;;;;;;;1.63;1.40;;;5.90;90.30;;;;;;4957769;28;20196;-67
2020/12/25 11:37:32;;;;;;;1.47;1.37;;;6.00;90.80;;;;;;4957217;28;20197;-68
2020/12/25 11:39:57;;;;;;;2.10;1.57;;;6.20;89.80;;;;;;4957755;28;20661;-68
2020/12/25 11:42:23;;;;;;;1.60;1.20;;;6.20;89.70;;;;;;4957375;28;20204;-68
2020/12/25 11:44:48;;;;;;;0.87;0.87;;;6.30;88.30;;;;;;4957529;28;20166;-68
2020/12/25 11:47:14;;;;;;;1.50;1.03;;;6.20;88.80;;;;;;4957460;28;20208;-68
2020/12/25 11:49:39;;;;;;;0.93;0.93;;;6.00;88.70;;;;;;4956170;29;20522;-67
2020/12/25 11:52:05;;;;;;;0.83;0.83;;;6.00;87.80;;;;;;4956399;28;20166;-67
2020/12/25 11:54:31;;;;;;;0.63;0.63;;;5.80;90.20;;;;;;4957325;28;20215;-68
2020/12/25 11:56:56;;;;;;;1.17;1.17;;;5.60;89.90;;;;;;4957507;28;20265;-68
2020/12/25 11:59:22;;;;;;;1.83;1.73;;;5.60;90.40;;;;;;4957374;28;20170;-68
2020/12/25 12:01:48;;;;;;;1.90;1.43;;;5.70;91.00;;;;;;4957119;28;20188;-68
2020/12/25 12:04:14;;;;;;;1.20;1.20;;;5.60;90.50;;;;;;4957301;28;20648;-68
2020/12/25 12:06:39;;;;;;;1.40;1.30;;;5.30;89.00;;;;;;4956914;28;20284;-68
2020/12/25 12:09:05;;;;;;;1.10;1.10;;;4.80;90.00;;;;;;4957479;28;20627;-68
2020/12/25 12:11:31;;;;;;;0.90;0.90;;;4.90;90.70;;;;;;4956885;28;20209;-68
2020/12/25 12:13:57;;;;;;;0.90;0.90;;;5.20;90.90;;;;;;4957026;28;20695;-68
2020/12/25 12:16:24;;;;;;;2.00;1.10;;;5.40;90.60;;;;;;4957064;28;20460;-68
2020/12/25 12:18:51;;;;;;;1.05;1.05;;;5.60;90.60;;;;;;4956861;28;20182;-68
2020/12/25 12:21:18;;;;;;;0.70;0.70;;;5.60;90.30;;;;;;4956864;28;20205;-68
2020/12/25 12:23:44;;;;;;;0.85;0.85;;;5.70;88.90;;;;;;4956824;28;20187;-68
2020/12/25 12:26:10;;;;;;;0.95;0.90;;;5.70;88.30;;;;;;4956714;28;20216;-67
2020/12/25 12:28:36;;;;;;;2.40;1.20;;;5.90;89.30;;;;;;4956635;28;20194;-68
2020/12/25 12:31:02;;;;;;;1.30;1.20;;;6.10;86.60;;;;;;4956655;28;20180;-68
2020/12/25 12:33:28;;;;;;;1.05;0.82;;;6.20;86.70;;;;;;4956722;28;20260;-68
2020/12/25 12:35:53;;;;;;;0.70;0.70;;;6.00;88.30;;;;;;4956556;28;20260;-67
2020/12/25 12:38:19;;;;;;;1.50;1.30;;;5.80;85.20;;;;;;4956314;28;20239;-68
2020/12/25 12:40:45;;;;;;;1.03;1.03;;;5.90;86.70;;;;;;4956562;28;20184;-68
2020/12/25 12:43:10;;;;;;;0.77;0.77;;;6.00;88.10;;;;;;4956264;28;20170;-68
2020/12/25 12:45:36;;;;;;;0.70;0.70;;;5.80;88.40;;;;;;4956538;28;20559;-68
2020/12/25 12:48:02;;;;;;;1.10;1.00;;;5.90;90.90;;;;;;4956343;28;20738;-68
2020/12/25 12:50:27;;;;;;;0.70;0.70;;;5.90;90.50;;;;;;4956278;28;20695;-68
2020/12/25 12:52:53;;;;;;;0.73;0.73;;;6.00;90.20;;;;;;4956161;28;20165;-68
2020/12/25 12:55:18;;;;;;;0.70;0.70;;;5.90;90.60;;;;;;4956298;28;20231;-68
2020/12/25 12:57:44;;;;;;;1.40;1.30;;;5.20;87.40;;;;;;4956213;28;20189;-68